sensor_id;sensor_type;location;lat;lon;timestamp;P1;durP1;ratioP1;P2;durP2;ratioP2
63350;SDS011;64988;51.058;17.040;2023-03-25T00:05:22;5.32;;;3.50;;
63350;SDS011;64988;51.058;17.040;2023-03-25T00:10:52;6.10;;;3.83;;
63350;SDS011;64988;51.058;17.040;2023-03-25T00:16:21;5.38;;;3.60;;
63350;SDS011;64988;51.058;17.040;2023-03-25T00:21:48;7.53;;;3.58;;
63350;SDS011;64988;51.058;17.040;2023-03-25T00:27:19;9.90;;;4.38;;
63350;SDS011;64988;51.058;17.040;2023-03-25T00:32:46;14.10;;;4.15;;
63350;SDS011;64988;51.058;17.040;2023-03-25T00:38:19;8.25;;;3.65;;
63350;SDS011;64988;51.058;17.040;2023-03-25T00:43:46;8.40;;;3.95;;
63350;SDS011;64988;51.058;17.040;2023-03-25T00:49:13;7.57;;;4.13;;
63350;SDS011;64988;51.058;17.040;2023-03-25T00:54:41;12.05;;;3.80;;
63350;SDS011;64988;51.058;17.040;2023-03-25T01:00:10;11.75;;;4.32;;
63350;SDS011;64988;51.058;17.040;2023-03-25T01:05:46;6.63;;;4.30;;
63350;SDS011;64988;51.058;17.040;2023-03-25T01:11:17;6.28;;;4.25;;
63350;SDS011;64988;51.058;17.040;2023-03-25T01:16:49;9.43;;;4.78;;
63350;SDS011;64988;51.058;17.040;2023-03-25T01:22:16;15.75;;;5.97;;
63350;SDS011;64988;51.058;17.040;2023-03-25T01:27:44;14.88;;;6.07;;
63350;SDS011;64988;51.058;17.040;2023-03-25T01:33:12;14.38;;;5.88;;
63350;SDS011;64988;51.058;17.040;2023-03-25T01:38:40;8.85;;;4.25;;
63350;SDS011;64988;51.058;17.040;2023-03-25T01:45:02;7.85;;;4.38;;
63350;SDS011;64988;51.058;17.040;2023-03-25T01:49:55;9.40;;;5.00;;
63350;SDS011;64988;51.058;17.040;2023-03-25T01:55:23;10.95;;;4.88;;
63350;SDS011;64988;51.058;17.040;2023-03-25T02:00:53;10.45;;;6.43;;
63350;SDS011;64988;51.058;17.040;2023-03-25T02:06:23;12.23;;;6.30;;
63350;SDS011;64988;51.058;17.040;2023-03-25T02:11:57;12.70;;;5.80;;
63350;SDS011;64988;51.058;17.040;2023-03-25T02:35:15;11.70;;;5.72;;
63350;SDS011;64988;51.058;17.040;2023-03-25T02:40:55;12.20;;;6.03;;
63350;SDS011;64988;51.058;17.040;2023-03-25T02:46:29;9.57;;;6.53;;
63350;SDS011;64988;51.058;17.040;2023-03-25T02:57:40;13.90;;;6.68;;
63350;SDS011;64988;51.058;17.040;2023-03-25T03:03:09;11.10;;;5.43;;
63350;SDS011;64988;51.058;17.040;2023-03-25T03:20:08;15.05;;;6.60;;
63350;SDS011;64988;51.058;17.040;2023-03-25T03:25:52;15.32;;;7.40;;
63350;SDS011;64988;51.058;17.040;2023-03-25T03:31:49;12.57;;;6.57;;
63350;SDS011;64988;51.058;17.040;2023-03-25T03:37:40;12.40;;;6.28;;
63350;SDS011;64988;51.058;17.040;2023-03-25T03:43:14;11.40;;;6.40;;
63350;SDS011;64988;51.058;17.040;2023-03-25T03:48:53;11.50;;;6.80;;
63350;SDS011;64988;51.058;17.040;2023-03-25T03:54:23;11.43;;;6.07;;
63350;SDS011;64988;51.058;17.040;2023-03-25T04:00:00;12.90;;;6.95;;
63350;SDS011;64988;51.058;17.040;2023-03-25T04:05:39;10.57;;;6.43;;
63350;SDS011;64988;51.058;17.040;2023-03-25T04:11:15;11.27;;;7.18;;
63350;SDS011;64988;51.058;17.040;2023-03-25T04:16:49;13.48;;;6.88;;
63350;SDS011;64988;51.058;17.040;2023-03-25T04:22:20;15.48;;;6.53;;
63350;SDS011;64988;51.058;17.040;2023-03-25T04:27:48;10.90;;;6.57;;
63350;SDS011;64988;51.058;17.040;2023-03-25T04:33:15;9.85;;;6.38;;
63350;SDS011;64988;51.058;17.040;2023-03-25T04:38:44;14.00;;;6.50;;
63350;SDS011;64988;51.058;17.040;2023-03-25T04:44:12;10.93;;;6.10;;
63350;SDS011;64988;51.058;17.040;2023-03-25T04:49:40;10.55;;;5.63;;
63350;SDS011;64988;51.058;17.040;2023-03-25T04:55:11;12.85;;;6.00;;
63350;SDS011;64988;51.058;17.040;2023-03-25T05:00:45;11.65;;;7.22;;
63350;SDS011;64988;51.058;17.040;2023-03-25T05:06:17;11.80;;;7.05;;
63350;SDS011;64988;51.058;17.040;2023-03-25T05:11:46;9.32;;;6.97;;
63350;SDS011;64988;51.058;17.040;2023-03-25T05:17:15;12.30;;;6.85;;
63350;SDS011;64988;51.058;17.040;2023-03-25T05:22:43;9.60;;;5.80;;
63350;SDS011;64988;51.058;17.040;2023-03-25T05:28:12;9.93;;;5.05;;
63350;SDS011;64988;51.058;17.040;2023-03-25T05:33:40;8.57;;;5.05;;
63350;SDS011;64988;51.058;17.040;2023-03-25T05:39:09;13.07;;;5.82;;
63350;SDS011;64988;51.058;17.040;2023-03-25T05:44:37;6.97;;;5.40;;
63350;SDS011;64988;51.058;17.040;2023-03-25T05:50:12;8.93;;;5.22;;
63350;SDS011;64988;51.058;17.040;2023-03-25T05:55:43;6.50;;;4.20;;
63350;SDS011;64988;51.058;17.040;2023-03-25T06:01:12;6.65;;;4.40;;
63350;SDS011;64988;51.058;17.040;2023-03-25T06:06:58;5.13;;;4.38;;
63350;SDS011;64988;51.058;17.040;2023-03-25T06:12:26;4.75;;;4.03;;
63350;SDS011;64988;51.058;17.040;2023-03-25T06:17:54;6.15;;;4.30;;
63350;SDS011;64988;51.058;17.040;2023-03-25T06:23:23;7.47;;;4.20;;
63350;SDS011;64988;51.058;17.040;2023-03-25T06:28:52;4.28;;;3.83;;
63350;SDS011;64988;51.058;17.040;2023-03-25T06:34:21;4.63;;;3.50;;
63350;SDS011;64988;51.058;17.040;2023-03-25T06:39:49;5.60;;;4.10;;
63350;SDS011;64988;51.058;17.040;2023-03-25T06:45:20;8.05;;;5.32;;
63350;SDS011;64988;51.058;17.040;2023-03-25T06:56:30;5.05;;;4.55;;
63350;SDS011;64988;51.058;17.040;2023-03-25T07:01:58;11.05;;;5.30;;
63350;SDS011;64988;51.058;17.040;2023-03-25T07:07:28;7.05;;;4.80;;
63350;SDS011;64988;51.058;17.040;2023-03-25T07:12:55;7.45;;;5.28;;
63350;SDS011;64988;51.058;17.040;2023-03-25T07:18:23;7.93;;;5.47;;
63350;SDS011;64988;51.058;17.040;2023-03-25T07:23:51;8.48;;;5.15;;
63350;SDS011;64988;51.058;17.040;2023-03-25T07:29:21;8.48;;;5.05;;
63350;SDS011;64988;51.058;17.040;2023-03-25T07:34:51;9.80;;;5.82;;
63350;SDS011;64988;51.058;17.040;2023-03-25T07:40:20;5.47;;;4.07;;
63350;SDS011;64988;51.058;17.040;2023-03-25T07:45:49;11.77;;;3.72;;
63350;SDS011;64988;51.058;17.040;2023-03-25T07:51:17;5.85;;;3.20;;
63350;SDS011;64988;51.058;17.040;2023-03-25T07:56:44;4.88;;;3.35;;
63350;SDS011;64988;51.058;17.040;2023-03-25T08:02:12;4.75;;;2.88;;
63350;SDS011;64988;51.058;17.040;2023-03-25T08:07:40;5.40;;;2.17;;
63350;SDS011;64988;51.058;17.040;2023-03-25T08:13:07;2.42;;;1.90;;
63350;SDS011;64988;51.058;17.040;2023-03-25T08:18:35;7.50;;;2.28;;
63350;SDS011;64988;51.058;17.040;2023-03-25T08:24:03;4.35;;;2.10;;
63350;SDS011;64988;51.058;17.040;2023-03-25T08:29:31;7.05;;;1.77;;
63350;SDS011;64988;51.058;17.040;2023-03-25T08:35:00;4.43;;;1.60;;
63350;SDS011;64988;51.058;17.040;2023-03-25T08:40:32;2.63;;;1.85;;
63350;SDS011;64988;51.058;17.040;2023-03-25T08:46:00;2.67;;;1.60;;
63350;SDS011;64988;51.058;17.040;2023-03-25T08:51:28;4.97;;;1.70;;
63350;SDS011;64988;51.058;17.040;2023-03-25T08:56:56;3.25;;;1.98;;
63350;SDS011;64988;51.058;17.040;2023-03-25T09:02:23;2.72;;;1.98;;
63350;SDS011;64988;51.058;17.040;2023-03-25T09:07:51;2.60;;;1.98;;
63350;SDS011;64988;51.058;17.040;2023-03-25T09:13:19;2.88;;;1.67;;
63350;SDS011;64988;51.058;17.040;2023-03-25T09:18:46;3.28;;;1.42;;
63350;SDS011;64988;51.058;17.040;2023-03-25T09:24:13;2.92;;;1.50;;
63350;SDS011;64988;51.058;17.040;2023-03-25T09:29:40;2.88;;;2.03;;
63350;SDS011;64988;51.058;17.040;2023-03-25T09:35:07;2.55;;;1.40;;
63350;SDS011;64988;51.058;17.040;2023-03-25T09:40:35;1.95;;;1.10;;
63350;SDS011;64988;51.058;17.040;2023-03-25T09:46:02;0.80;;;0.80;;
63350;SDS011;64988;51.058;17.040;2023-03-25T09:51:32;1.10;;;0.80;;
63350;SDS011;64988;51.058;17.040;2023-03-25T09:57:06;1.17;;;0.60;;
63350;SDS011;64988;51.058;17.040;2023-03-25T10:02:44;6.07;;;0.95;;
63350;SDS011;64988;51.058;17.040;2023-03-25T10:08:31;1.65;;;0.80;;
63350;SDS011;64988;51.058;17.040;2023-03-25T10:14:10;3.60;;;1.27;;
63350;SDS011;64988;51.058;17.040;2023-03-25T10:20:15;2.47;;;0.95;;
63350;SDS011;64988;51.058;17.040;2023-03-25T10:25:51;4.57;;;1.63;;
63350;SDS011;64988;51.058;17.040;2023-03-25T10:31:25;4.50;;;1.27;;
63350;SDS011;64988;51.058;17.040;2023-03-25T10:36:57;1.10;;;1.00;;
63350;SDS011;64988;51.058;17.040;2023-03-25T10:42:32;0.75;;;0.75;;
63350;SDS011;64988;51.058;17.040;2023-03-25T10:53:53;1.58;;;1.00;;
63350;SDS011;64988;51.058;17.040;2023-03-25T10:59:22;1.35;;;0.80;;
63350;SDS011;64988;51.058;17.040;2023-03-25T11:05:03;1.58;;;1.00;;
63350;SDS011;64988;51.058;17.040;2023-03-25T11:10:33;3.55;;;1.05;;
63350;SDS011;64988;51.058;17.040;2023-03-25T11:16:01;2.25;;;1.27;;
63350;SDS011;64988;51.058;17.040;2023-03-25T11:21:32;2.13;;;1.08;;
63350;SDS011;64988;51.058;17.040;2023-03-25T11:27:02;3.17;;;1.43;;
63350;SDS011;64988;51.058;17.040;2023-03-25T11:32:35;1.65;;;1.48;;
63350;SDS011;64988;51.058;17.040;2023-03-25T11:38:18;2.80;;;1.00;;
63350;SDS011;64988;51.058;17.040;2023-03-25T11:43:47;1.50;;;1.40;;
63350;SDS011;64988;51.058;17.040;2023-03-25T11:49:17;2.22;;;1.55;;
63350;SDS011;64988;51.058;17.040;2023-03-25T11:54:49;5.63;;;1.73;;
63350;SDS011;64988;51.058;17.040;2023-03-25T12:06:02;3.35;;;1.30;;
63350;SDS011;64988;51.058;17.040;2023-03-25T12:11:35;6.30;;;1.80;;
63350;SDS011;64988;51.058;17.040;2023-03-25T12:35:21;1.05;;;0.93;;
63350;SDS011;64988;51.058;17.040;2023-03-25T12:41:16;0.60;;;0.60;;
63350;SDS011;64988;51.058;17.040;2023-03-25T12:46:54;1.33;;;1.00;;
63350;SDS011;64988;51.058;17.040;2023-03-25T13:21:40;1.75;;;1.15;;
63350;SDS011;64988;51.058;17.040;2023-03-25T13:27:11;1.85;;;0.75;;
63350;SDS011;64988;51.058;17.040;2023-03-25T13:32:47;1.95;;;0.93;;
63350;SDS011;64988;51.058;17.040;2023-03-25T13:38:24;2.25;;;1.17;;
63350;SDS011;64988;51.058;17.040;2023-03-25T13:49:32;1.55;;;1.45;;
63350;SDS011;64988;51.058;17.040;2023-03-25T13:55:15;1.50;;;1.40;;
63350;SDS011;64988;51.058;17.040;2023-03-25T14:06:47;1.83;;;1.38;;
63350;SDS011;64988;51.058;17.040;2023-03-25T14:12:20;2.47;;;1.85;;
63350;SDS011;64988;51.058;17.040;2023-03-25T14:17:52;8.52;;;2.75;;
63350;SDS011;64988;51.058;17.040;2023-03-25T14:23:22;4.18;;;1.45;;
63350;SDS011;64988;51.058;17.040;2023-03-25T14:28:52;0.60;;;0.60;;
63350;SDS011;64988;51.058;17.040;2023-03-25T14:34:24;2.28;;;0.80;;
63350;SDS011;64988;51.058;17.040;2023-03-25T14:39:57;1.77;;;0.80;;
63350;SDS011;64988;51.058;17.040;2023-03-25T15:02:33;2.00;;;0.80;;
63350;SDS011;64988;51.058;17.040;2023-03-25T15:13:41;2.55;;;1.50;;
63350;SDS011;64988;51.058;17.040;2023-03-25T15:19:13;4.93;;;2.05;;
63350;SDS011;64988;51.058;17.040;2023-03-25T15:24:46;5.05;;;1.67;;
63350;SDS011;64988;51.058;17.040;2023-03-25T15:35:51;4.85;;;2.67;;
63350;SDS011;64988;51.058;17.040;2023-03-25T15:41:24;8.15;;;3.13;;
63350;SDS011;64988;51.058;17.040;2023-03-25T15:47:18;3.63;;;2.50;;
63350;SDS011;64988;51.058;17.040;2023-03-25T16:04:45;1.00;;;1.00;;
63350;SDS011;64988;51.058;17.040;2023-03-25T16:10:25;1.35;;;1.08;;
63350;SDS011;64988;51.058;17.040;2023-03-25T16:15:56;3.83;;;2.30;;
63350;SDS011;64988;51.058;17.040;2023-03-25T16:21:27;4.00;;;2.25;;
63350;SDS011;64988;51.058;17.040;2023-03-25T16:27:09;4.00;;;2.63;;
63350;SDS011;64988;51.058;17.040;2023-03-25T16:32:37;3.90;;;2.40;;
63350;SDS011;64988;51.058;17.040;2023-03-25T16:38:04;3.35;;;2.10;;
63350;SDS011;64988;51.058;17.040;2023-03-25T16:43:33;2.75;;;2.20;;
63350;SDS011;64988;51.058;17.040;2023-03-25T16:49:01;2.60;;;1.80;;
63350;SDS011;64988;51.058;17.040;2023-03-25T16:54:36;3.28;;;1.80;;
63350;SDS011;64988;51.058;17.040;2023-03-25T17:06:19;7.43;;;2.50;;
63350;SDS011;64988;51.058;17.040;2023-03-25T17:11:43;5.15;;;2.72;;
63350;SDS011;64988;51.058;17.040;2023-03-25T17:34:22;9.18;;;3.92;;
63350;SDS011;64988;51.058;17.040;2023-03-25T17:39:52;8.80;;;4.32;;
63350;SDS011;64988;51.058;17.040;2023-03-25T17:45:22;7.60;;;4.20;;
63350;SDS011;64988;51.058;17.040;2023-03-25T17:50:52;13.13;;;5.85;;
63350;SDS011;64988;51.058;17.040;2023-03-25T17:56:23;15.18;;;6.63;;
63350;SDS011;64988;51.058;17.040;2023-03-25T18:01:52;13.20;;;6.85;;
63350;SDS011;64988;51.058;17.040;2023-03-25T18:07:20;15.27;;;7.95;;
63350;SDS011;64988;51.058;17.040;2023-03-25T18:12:47;14.77;;;7.82;;
63350;SDS011;64988;51.058;17.040;2023-03-25T18:18:16;15.15;;;7.25;;
63350;SDS011;64988;51.058;17.040;2023-03-25T18:23:47;11.98;;;6.38;;
63350;SDS011;64988;51.058;17.040;2023-03-25T18:29:19;8.73;;;5.35;;
63350;SDS011;64988;51.058;17.040;2023-03-25T18:34:50;12.77;;;7.20;;
63350;SDS011;64988;51.058;17.040;2023-03-25T18:40:20;15.20;;;7.45;;
63350;SDS011;64988;51.058;17.040;2023-03-25T18:45:50;22.65;;;11.55;;
63350;SDS011;64988;51.058;17.040;2023-03-25T18:51:17;14.77;;;7.85;;
63350;SDS011;64988;51.058;17.040;2023-03-25T18:56:45;15.98;;;7.20;;
63350;SDS011;64988;51.058;17.040;2023-03-25T19:02:14;13.60;;;6.57;;
63350;SDS011;64988;51.058;17.040;2023-03-25T19:07:42;7.90;;;4.50;;
63350;SDS011;64988;51.058;17.040;2023-03-25T19:13:09;5.95;;;3.13;;
63350;SDS011;64988;51.058;17.040;2023-03-25T19:18:37;4.60;;;2.58;;
63350;SDS011;64988;51.058;17.040;2023-03-25T19:24:04;4.72;;;2.60;;
63350;SDS011;64988;51.058;17.040;2023-03-25T19:29:34;9.60;;;3.03;;
63350;SDS011;64988;51.058;17.040;2023-03-25T19:35:04;3.78;;;2.47;;
63350;SDS011;64988;51.058;17.040;2023-03-25T19:40:34;7.22;;;2.90;;
63350;SDS011;64988;51.058;17.040;2023-03-25T19:46:04;5.32;;;2.50;;
63350;SDS011;64988;51.058;17.040;2023-03-25T19:51:33;4.45;;;2.60;;
63350;SDS011;64988;51.058;17.040;2023-03-25T19:57:02;8.43;;;3.78;;
63350;SDS011;64988;51.058;17.040;2023-03-25T20:02:30;5.63;;;3.17;;
63350;SDS011;64988;51.058;17.040;2023-03-25T20:08:00;7.95;;;3.20;;
63350;SDS011;64988;51.058;17.040;2023-03-25T20:13:28;9.05;;;3.78;;
63350;SDS011;64988;51.058;17.040;2023-03-25T20:18:55;6.70;;;3.30;;
63350;SDS011;64988;51.058;17.040;2023-03-25T20:24:23;7.07;;;2.47;;
63350;SDS011;64988;51.058;17.040;2023-03-25T20:29:51;5.20;;;2.67;;
63350;SDS011;64988;51.058;17.040;2023-03-25T20:35:19;5.43;;;2.33;;
63350;SDS011;64988;51.058;17.040;2023-03-25T20:40:47;8.80;;;3.45;;
63350;SDS011;64988;51.058;17.040;2023-03-25T20:46:15;5.95;;;3.38;;
63350;SDS011;64988;51.058;17.040;2023-03-25T20:51:43;4.78;;;3.13;;
63350;SDS011;64988;51.058;17.040;2023-03-25T20:57:11;6.80;;;3.92;;
63350;SDS011;64988;51.058;17.040;2023-03-25T21:02:39;8.07;;;5.15;;
63350;SDS011;64988;51.058;17.040;2023-03-25T21:08:09;10.95;;;4.78;;
63350;SDS011;64988;51.058;17.040;2023-03-25T21:13:37;7.43;;;4.68;;
63350;SDS011;64988;51.058;17.040;2023-03-25T21:19:08;10.27;;;5.18;;
63350;SDS011;64988;51.058;17.040;2023-03-25T21:24:36;11.77;;;5.40;;
63350;SDS011;64988;51.058;17.040;2023-03-25T21:30:05;8.85;;;5.43;;
63350;SDS011;64988;51.058;17.040;2023-03-25T21:35:36;10.55;;;6.10;;
63350;SDS011;64988;51.058;17.040;2023-03-25T21:41:05;9.68;;;5.68;;
63350;SDS011;64988;51.058;17.040;2023-03-25T21:46:35;12.18;;;5.97;;
63350;SDS011;64988;51.058;17.040;2023-03-25T21:52:03;12.25;;;5.82;;
63350;SDS011;64988;51.058;17.040;2023-03-25T21:57:32;10.73;;;6.18;;
63350;SDS011;64988;51.058;17.040;2023-03-25T22:03:04;7.72;;;5.15;;
63350;SDS011;64988;51.058;17.040;2023-03-25T22:08:32;8.70;;;4.90;;
63350;SDS011;64988;51.058;17.040;2023-03-25T22:13:59;7.20;;;4.43;;
63350;SDS011;64988;51.058;17.040;2023-03-25T22:19:27;8.93;;;3.92;;
63350;SDS011;64988;51.058;17.040;2023-03-25T22:24:56;6.85;;;4.22;;
63350;SDS011;64988;51.058;17.040;2023-03-25T22:30:25;5.43;;;3.80;;
63350;SDS011;64988;51.058;17.040;2023-03-25T22:36:00;5.70;;;3.75;;
63350;SDS011;64988;51.058;17.040;2023-03-25T22:41:29;6.00;;;3.40;;
63350;SDS011;64988;51.058;17.040;2023-03-25T22:46:56;10.20;;;4.85;;
63350;SDS011;64988;51.058;17.040;2023-03-25T22:52:23;4.65;;;3.17;;
63350;SDS011;64988;51.058;17.040;2023-03-25T22:57:51;3.53;;;3.13;;
63350;SDS011;64988;51.058;17.040;2023-03-25T23:03:19;8.02;;;3.58;;
63350;SDS011;64988;51.058;17.040;2023-03-25T23:08:50;4.93;;;3.08;;
63350;SDS011;64988;51.058;17.040;2023-03-25T23:14:17;5.72;;;3.03;;
63350;SDS011;64988;51.058;17.040;2023-03-25T23:19:45;4.70;;;3.35;;
63350;SDS011;64988;51.058;17.040;2023-03-25T23:25:13;5.22;;;3.38;;
63350;SDS011;64988;51.058;17.040;2023-03-25T23:30:41;3.47;;;2.90;;
63350;SDS011;64988;51.058;17.040;2023-03-25T23:36:12;6.07;;;3.25;;
63350;SDS011;64988;51.058;17.040;2023-03-25T23:41:41;4.97;;;3.60;;
63350;SDS011;64988;51.058;17.040;2023-03-25T23:47:08;4.75;;;3.40;;
63350;SDS011;64988;51.058;17.040;2023-03-25T23:52:36;6.78;;;3.83;;
63350;SDS011;64988;51.058;17.040;2023-03-25T23:58:04;4.50;;;3.33;;
